Time;durP1;ratioP1;P1;durP2;ratioP2;P2;SDS_P1;SDS_P2;PMS_P1;PMS_P2;Temp;Humidity;BMP_temperature;BMP_pressure;BME280_temperature;BME280_humidity;BME280_pressure;Samples;Min_cycle;Max_cycle;Signal;HPM_P1;HPM_P2
2022/10/27 00:00:31;;;;;;;13.98;9.57;;;13.50;99.90;;;;;;4893532;29;20052;-92
2022/10/27 00:02:56;;;;;;;14.88;9.65;;;13.40;99.90;;;;;;4878077;29;20056;-92
2022/10/27 00:05:22;;;;;;;12.68;9.60;;;13.40;99.90;;;;;;4910441;29;20093;-92
2022/10/27 00:07:48;;;;;;;14.38;9.45;;;13.40;99.90;;;;;;4920588;29;20044;-93
2022/10/27 00:10:14;;;;;;;15.43;10.80;;;13.40;99.90;;;;;;4893107;29;20044;-92
2022/10/27 00:12:39;;;;;;;14.48;10.35;;;13.50;99.90;;;;;;4901081;29;20156;-92
2022/10/27 00:15:06;;;;;;;16.92;11.13;;;13.50;99.90;;;;;;4893103;29;20519;-92
2022/10/27 00:17:31;;;;;;;17.15;10.10;;;13.60;99.90;;;;;;4887202;29;20723;-91
2022/10/27 00:19:57;;;;;;;15.77;10.93;;;13.60;99.90;;;;;;4901227;29;20067;-91
2022/10/27 00:22:23;;;;;;;14.63;10.48;;;13.50;99.90;;;;;;4885443;29;20485;-92
2022/10/27 00:24:48;;;;;;;17.85;10.57;;;13.50;99.90;;;;;;4904335;29;20122;-91
2022/10/27 00:27:14;;;;;;;14.80;9.60;;;13.40;99.90;;;;;;4924520;29;20032;-92
2022/10/27 00:29:39;;;;;;;14.88;10.35;;;13.40;99.90;;;;;;4919959;29;20123;-92
2022/10/27 00:32:05;;;;;;;15.40;10.50;;;13.40;99.90;;;;;;4922930;29;20100;-92
2022/10/27 00:34:31;;;;;;;13.98;9.85;;;13.40;99.90;;;;;;4906773;29;20042;-91
2022/10/27 00:36:56;;;;;;;15.88;10.95;;;13.40;99.90;;;;;;4903496;29;20047;-92
2022/10/27 00:39:22;;;;;;;16.20;10.85;;;13.40;99.90;;;;;;4904567;29;20035;-92
2022/10/27 00:41:48;;;;;;;17.48;10.93;;;13.40;99.90;;;;;;4904611;29;20046;-92
2022/10/27 00:44:45;;;;;;;15.55;10.85;;;13.50;99.90;;;;;;4901230;29;20076;-92
2022/10/27 00:47:18;;;;;;;15.23;11.07;;;13.50;99.90;;;;;;4889762;29;20126;-93
2022/10/27 00:49:50;;;;;;;15.93;11.43;;;13.50;99.90;;;;;;4892377;29;20127;-92
2022/10/27 00:52:19;;;;;;;17.27;11.70;;;13.60;99.90;;;;;;4920126;29;20067;-92
2022/10/27 00:54:45;;;;;;;16.10;10.95;;;13.70;99.90;;;;;;4908680;29;20113;-92
2022/10/27 00:57:11;;;;;;;17.48;11.70;;;13.80;99.90;;;;;;4906265;29;20235;-92
2022/10/27 00:59:38;;;;;;;16.27;11.80;;;13.90;99.90;;;;;;4914687;29;20054;-93
2022/10/27 01:02:05;;;;;;;15.40;11.50;;;13.80;99.90;;;;;;4918456;29;20403;-92
2022/10/27 01:04:53;;;;;;;15.52;10.25;;;13.80;99.90;;;;;;4923227;29;20055;-92
2022/10/27 01:07:19;;;;;;;15.57;11.10;;;13.70;99.90;;;;;;4906297;29;20032;-92
2022/10/27 01:09:45;;;;;;;13.30;11.30;;;13.70;99.90;;;;;;4938059;28;20035;-92
2022/10/27 01:12:11;;;;;;;14.98;10.38;;;13.60;99.90;;;;;;4912017;29;20063;-92
2022/10/27 01:14:37;;;;;;;16.08;10.40;;;13.60;99.90;;;;;;4897234;29;20037;-92
2022/10/27 01:17:13;;;;;;;17.83;10.88;;;13.50;99.90;;;;;;4888858;29;20534;-92
2022/10/27 01:20:23;;;;;;;18.85;12.30;;;13.50;99.90;;;;;;4896759;29;20041;-92
2022/10/27 01:22:57;;;;;;;17.70;11.25;;;13.50;99.90;;;;;;4911697;29;20052;-93
2022/10/27 01:25:43;;;;;;;22.63;12.13;;;13.50;99.90;;;;;;4916573;29;20413;-92
2022/10/27 01:28:42;;;;;;;15.55;11.85;;;13.50;99.90;;;;;;4905239;29;20042;-92
2022/10/27 01:31:09;;;;;;;14.98;11.05;;;13.40;99.90;;;;;;4790459;29;20103;-92
2022/10/27 01:33:55;;;;;;;15.82;11.18;;;13.40;99.90;;;;;;4805770;29;20062;-93
2022/10/27 01:36:35;;;;;;;17.42;12.18;;;13.40;99.90;;;;;;4793807;29;20203;-92
2022/10/27 01:39:12;;;;;;;14.50;10.88;;;13.50;99.90;;;;;;4807521;29;20397;-91
2022/10/27 01:42:04;;;;;;;17.30;11.52;;;13.50;99.90;;;;;;4808385;29;20059;-92
2022/10/27 01:44:34;;;;;;;17.95;11.02;;;13.50;99.90;;;;;;4805522;29;20089;-93
2022/10/27 01:47:01;;;;;;;17.35;11.98;;;13.60;99.90;;;;;;4818847;29;20045;-92
2022/10/27 01:49:38;;;;;;;17.95;11.98;;;13.60;99.90;;;;;;4811487;29;20141;-92
2022/10/27 01:52:05;;;;;;;16.98;11.82;;;13.60;99.90;;;;;;4824438;29;20053;-92
2022/10/27 01:54:31;;;;;;;16.27;11.77;;;13.70;99.90;;;;;;4813709;29;20129;-92
2022/10/27 01:57:10;;;;;;;21.48;12.70;;;13.80;99.90;;;;;;4807610;29;20057;-92
2022/10/27 01:59:47;;;;;;;17.33;11.50;;;13.80;99.90;;;;;;4822584;29;20194;-92
2022/10/27 02:02:30;;;;;;;15.30;11.15;;;13.90;99.90;;;;;;4821516;29;20059;-92
2022/10/27 02:05:20;;;;;;;17.33;12.20;;;13.90;99.90;;;;;;4811902;29;20056;-92
2022/10/27 02:08:13;;;;;;;15.30;11.15;;;13.90;99.90;;;;;;4865408;29;20135;-93
2022/10/27 02:10:52;;;;;;;17.35;12.30;;;14.00;99.90;;;;;;4922669;29;20051;-93
2022/10/27 02:13:17;;;;;;;17.08;12.50;;;14.00;99.90;;;;;;4935836;29;20075;-93
2022/10/27 02:15:49;;;;;;;16.83;12.82;;;14.00;99.90;;;;;;4917045;29;20067;-93
2022/10/27 02:18:17;;;;;;;18.10;13.05;;;14.00;99.90;;;;;;4898951;29;20405;-93
2022/10/27 02:20:49;;;;;;;17.40;12.55;;;14.10;99.90;;;;;;4910076;29;20098;-93
2022/10/27 02:23:20;;;;;;;16.27;11.90;;;14.10;99.90;;;;;;4883694;29;20036;-93
2022/10/27 02:25:56;;;;;;;16.80;12.00;;;14.00;99.90;;;;;;4899795;29;20085;-93
2022/10/27 02:28:28;;;;;;;15.95;11.57;;;14.00;99.90;;;;;;4898527;29;20036;-92
2022/10/27 02:30:57;;;;;;;16.60;11.68;;;14.00;99.90;;;;;;4898551;29;20040;-93
2022/10/27 02:33:24;;;;;;;16.80;11.50;;;14.00;99.90;;;;;;4883217;29;20103;-93
2022/10/27 02:35:51;;;;;;;17.00;12.65;;;14.00;99.90;;;;;;4899834;29;20447;-93
2022/10/27 02:38:17;;;;;;;18.10;12.43;;;14.00;99.90;;;;;;4897341;29;20456;-92
2022/10/27 02:40:42;;;;;;;16.40;11.30;;;14.00;99.90;;;;;;4899939;29;20131;-93
2022/10/27 02:43:08;;;;;;;19.13;13.10;;;13.90;99.90;;;;;;4897595;29;20131;-93
2022/10/27 02:45:34;;;;;;;17.75;11.57;;;13.90;99.90;;;;;;4913776;29;20111;-93
2022/10/27 02:47:59;;;;;;;16.73;12.18;;;13.80;99.90;;;;;;4900483;29;20028;-93
2022/10/27 02:50:25;;;;;;;15.43;11.98;;;13.80;99.90;;;;;;4893558;29;20111;-94
2022/10/27 02:52:50;;;;;;;18.65;13.02;;;13.80;99.90;;;;;;4918042;29;20032;-93
2022/10/27 02:55:16;;;;;;;21.63;13.95;;;13.80;99.90;;;;;;4914298;29;20102;-93
2022/10/27 02:57:41;;;;;;;19.65;13.10;;;13.70;99.90;;;;;;4888071;29;20040;-93
2022/10/27 03:00:07;;;;;;;14.55;11.18;;;13.80;99.90;;;;;;4890396;29;20035;-93
2022/10/27 03:02:33;;;;;;;17.33;11.60;;;13.70;99.90;;;;;;4905312;29;20836;-92
2022/10/27 03:04:59;;;;;;;17.45;11.48;;;13.70;99.90;;;;;;4900949;29;20108;-92
2022/10/27 03:07:24;;;;;;;18.25;12.77;;;13.70;99.90;;;;;;4892532;29;20044;-93
2022/10/27 03:09:50;;;;;;;15.43;11.95;;;13.60;99.90;;;;;;4901884;29;20043;-93
2022/10/27 03:12:15;;;;;;;17.33;12.75;;;13.60;99.90;;;;;;4884812;29;20409;-92
2022/10/27 03:14:41;;;;;;;17.00;11.30;;;13.50;99.90;;;;;;4884615;29;20047;-92
2022/10/27 03:17:06;;;;;;;17.13;11.95;;;13.50;99.90;;;;;;4914768;29;20031;-94
2022/10/27 03:19:32;;;;;;;17.20;11.00;;;13.50;99.90;;;;;;4886861;29;20409;-92
2022/10/27 03:21:57;;;;;;;16.27;10.60;;;13.40;99.90;;;;;;4891962;29;20040;-92
2022/10/27 03:24:23;;;;;;;15.48;11.73;;;13.40;99.90;;;;;;4908872;29;20099;-93
2022/10/27 03:26:49;;;;;;;18.60;11.90;;;13.30;99.90;;;;;;4887937;29;20032;-93
2022/10/27 03:29:14;;;;;;;16.73;11.90;;;13.30;99.90;;;;;;4904603;29;20035;-93
2022/10/27 03:31:40;;;;;;;20.83;12.93;;;13.30;99.90;;;;;;4929488;29;20040;-93
2022/10/27 03:34:05;;;;;;;17.23;12.82;;;13.30;99.90;;;;;;4899607;29;20455;-93
2022/10/27 03:36:31;;;;;;;18.13;13.88;;;13.30;99.90;;;;;;4901102;29;20124;-93
2022/10/27 03:38:57;;;;;;;20.02;14.13;;;13.20;99.90;;;;;;4886251;29;20128;-92
2022/10/27 03:41:22;;;;;;;18.77;13.32;;;13.20;99.90;;;;;;4921057;29;20134;-93
2022/10/27 03:43:48;;;;;;;20.13;13.52;;;13.20;99.90;;;;;;4891271;29;20036;-92
2022/10/27 03:46:14;;;;;;;18.75;12.68;;;13.10;99.90;;;;;;4926877;29;20036;-93
2022/10/27 03:48:39;;;;;;;17.60;13.43;;;13.10;99.90;;;;;;4903146;29;20039;-92
2022/10/27 03:51:05;;;;;;;19.48;14.20;;;13.10;99.90;;;;;;4902752;29;20050;-93
2022/10/27 03:53:30;;;;;;;19.95;13.18;;;13.10;99.90;;;;;;4886426;29;20050;-92
2022/10/27 03:55:56;;;;;;;18.35;13.23;;;13.00;99.90;;;;;;4923849;29;20051;-92
2022/10/27 03:58:21;;;;;;;18.80;12.80;;;12.90;99.90;;;;;;4920518;29;20039;-93
2022/10/27 04:00:47;;;;;;;18.42;13.88;;;13.00;99.90;;;;;;4901604;29;20044;-92
2022/10/27 04:03:13;;;;;;;19.50;15.88;;;12.90;99.90;;;;;;4896625;29;20046;-92
2022/10/27 04:05:39;;;;;;;18.05;14.10;;;12.90;99.90;;;;;;4917649;29;20120;-93
2022/10/27 04:08:04;;;;;;;19.60;14.15;;;12.90;99.90;;;;;;4902576;29;20468;-92
2022/10/27 04:10:30;;;;;;;18.92;15.40;;;12.90;99.90;;;;;;4917987;29;20052;-93
2022/10/27 04:12:56;;;;;;;23.45;16.15;;;12.90;99.90;;;;;;4889148;29;20051;-93
2022/10/27 04:15:25;;;;;;;21.60;14.85;;;12.80;99.90;;;;;;4884037;29;20385;-93
2022/10/27 04:17:55;;;;;;;20.50;15.18;;;12.80;99.90;;;;;;4893456;29;20048;-92
2022/10/27 04:20:22;;;;;;;21.67;17.00;;;12.80;99.90;;;;;;4901261;29;20131;-92
2022/10/27 04:22:47;;;;;;;19.60;15.48;;;12.80;99.90;;;;;;4886127;29;20047;-93
2022/10/27 04:25:13;;;;;;;22.80;17.90;;;12.80;99.90;;;;;;4912845;29;20048;-92
2022/10/27 04:27:39;;;;;;;18.05;15.55;;;12.80;99.90;;;;;;4926362;29;20112;-91
2022/10/27 04:30:05;;;;;;;19.85;15.25;;;12.80;99.90;;;;;;4909786;29;20036;-92
2022/10/27 04:32:30;;;;;;;19.02;14.95;;;12.70;99.90;;;;;;4894388;29;20044;-92
2022/10/27 04:34:56;;;;;;;21.38;16.40;;;12.70;99.90;;;;;;4916983;29;20044;-92
2022/10/27 04:37:22;;;;;;;21.38;15.50;;;12.70;99.90;;;;;;4907093;29;20043;-92
2022/10/27 04:39:47;;;;;;;21.58;15.70;;;12.70;99.90;;;;;;4901966;29;20115;-92
2022/10/27 04:42:13;;;;;;;20.80;15.27;;;12.70;99.90;;;;;;4937614;29;20079;-92
2022/10/27 04:44:38;;;;;;;20.50;15.68;;;12.60;99.90;;;;;;4918101;29;20123;-92
2022/10/27 04:47:04;;;;;;;21.98;17.02;;;12.60;99.90;;;;;;4889819;29;20039;-92
2022/10/27 04:49:30;;;;;;;20.23;16.17;;;12.60;99.90;;;;;;4906185;29;20052;-92
2022/10/27 04:51:55;;;;;;;19.67;15.93;;;12.60;99.90;;;;;;4931565;29;20203;-92
2022/10/27 04:54:21;;;;;;;17.38;14.00;;;12.60;99.90;;;;;;4905580;29;20095;-92
2022/10/27 04:56:47;;;;;;;21.73;18.15;;;12.70;99.90;;;;;;4889137;29;20036;-92
2022/10/27 04:59:13;;;;;;;23.45;18.15;;;12.70;99.90;;;;;;4902507;29;20059;-93
2022/10/27 05:01:39;;;;;;;21.45;17.33;;;12.70;99.90;;;;;;4908271;29;20076;-92
2022/10/27 05:04:04;;;;;;;24.13;18.30;;;12.80;99.90;;;;;;4890011;29;20052;-93
2022/10/27 05:06:30;;;;;;;20.60;17.77;;;12.70;99.90;;;;;;4889022;29;20095;-92
2022/10/27 05:08:55;;;;;;;24.13;18.45;;;12.80;99.90;;;;;;4907429;29;20051;-92
2022/10/27 05:11:21;;;;;;;22.25;19.80;;;12.80;99.90;;;;;;4917278;29;20040;-93
2022/10/27 05:13:50;;;;;;;23.63;18.58;;;12.80;99.90;;;;;;4901543;29;20058;-95
2022/10/27 05:16:16;;;;;;;20.83;18.55;;;12.80;99.90;;;;;;4920530;29;20079;-93
2022/10/27 05:18:42;;;;;;;22.52;17.48;;;12.80;99.90;;;;;;4905850;29;20044;-93
2022/10/27 05:21:08;;;;;;;20.88;17.33;;;12.80;99.90;;;;;;4902338;29;20036;-94
2022/10/27 05:23:33;;;;;;;21.27;16.88;;;12.80;99.90;;;;;;4920561;29;20043;-92
2022/10/27 05:25:59;;;;;;;21.98;17.83;;;12.80;99.90;;;;;;4938637;29;20065;-93
2022/10/27 05:28:25;;;;;;;21.30;17.50;;;12.80;99.90;;;;;;4903015;29;20047;-95
2022/10/27 05:30:58;;;;;;;20.13;16.88;;;12.80;99.90;;;;;;4881132;29;20477;-94
2022/10/27 05:33:25;;;;;;;22.25;18.50;;;12.80;99.90;;;;;;4888981;29;20040;-93
2022/10/27 05:35:51;;;;;;;21.17;18.60;;;12.80;99.90;;;;;;4898085;29;20044;-94
2022/10/27 05:38:17;;;;;;;19.55;17.17;;;12.90;99.90;;;;;;4882610;29;20507;-93
2022/10/27 05:40:43;;;;;;;21.92;18.15;;;12.90;99.90;;;;;;4901556;29;20047;-94
2022/10/27 05:43:09;;;;;;;21.25;18.58;;;12.90;99.90;;;;;;4898059;29;20028;-93
2022/10/27 05:45:35;;;;;;;20.98;18.40;;;12.90;99.90;;;;;;4886227;29;20044;-93
2022/10/27 05:48:03;;;;;;;20.95;18.33;;;13.00;99.90;;;;;;4899759;29;20401;-92
2022/10/27 05:50:30;;;;;;;20.95;17.48;;;13.00;99.90;;;;;;4884185;29;20159;-93
2022/10/27 05:52:56;;;;;;;22.65;18.60;;;13.00;99.90;;;;;;4884345;29;20040;-93
2022/10/27 05:55:23;;;;;;;20.75;17.90;;;13.10;99.90;;;;;;4880315;29;20370;-94
2022/10/27 05:57:57;;;;;;;24.83;19.35;;;13.00;99.90;;;;;;4889558;29;20040;-91
2022/10/27 06:00:25;;;;;;;26.63;20.38;;;13.10;99.90;;;;;;4891791;29;20115;-93
2022/10/27 06:02:54;;;;;;;22.20;18.27;;;13.10;99.90;;;;;;4902779;29;20070;-91
2022/10/27 06:05:20;;;;;;;23.15;18.25;;;13.10;99.90;;;;;;4903053;29;20050;-94
2022/10/27 06:07:45;;;;;;;23.20;18.90;;;13.10;99.90;;;;;;4911584;29;20040;-96
2022/10/27 06:10:11;;;;;;;23.38;17.48;;;13.10;99.90;;;;;;4913174;29;20072;-93
2022/10/27 06:12:37;;;;;;;21.15;17.73;;;13.10;99.90;;;;;;4900727;29;20105;-93
2022/10/27 06:15:03;;;;;;;25.05;19.25;;;13.20;99.90;;;;;;4881362;29;20505;-93
2022/10/27 06:17:29;;;;;;;22.00;17.45;;;13.30;99.90;;;;;;4899558;29;20114;-92
2022/10/27 06:19:54;;;;;;;23.08;17.80;;;13.20;99.90;;;;;;4882378;29;20048;-92
2022/10/27 06:22:20;;;;;;;21.45;16.83;;;13.30;99.90;;;;;;4906629;29;20059;-93
2022/10/27 06:24:45;;;;;;;18.55;16.25;;;13.30;99.90;;;;;;4886535;29;20047;-94
2022/10/27 06:27:11;;;;;;;20.00;16.23;;;13.40;99.90;;;;;;4898465;29;20040;-93
2022/10/27 06:29:37;;;;;;;19.95;16.35;;;13.40;99.90;;;;;;4899665;29;20069;-92
2022/10/27 06:32:03;;;;;;;22.67;15.82;;;13.50;99.90;;;;;;4909758;29;20068;-89
2022/10/27 06:34:28;;;;;;;19.60;14.80;;;13.50;99.90;;;;;;4885102;29;20648;-90
2022/10/27 06:36:54;;;;;;;18.92;14.10;;;13.50;99.90;;;;;;4892342;29;20048;-90
2022/10/27 06:39:19;;;;;;;17.63;13.93;;;13.70;99.90;;;;;;4898425;29;20056;-90
2022/10/27 06:41:45;;;;;;;17.63;14.70;;;13.70;99.90;;;;;;4886767;29;20056;-90
2022/10/27 06:44:11;;;;;;;19.92;14.35;;;13.70;99.90;;;;;;4903147;29;20071;-88
2022/10/27 06:46:38;;;;;;;18.35;14.27;;;13.70;99.90;;;;;;4926846;29;20044;-90
2022/10/27 06:49:05;;;;;;;18.38;13.48;;;13.70;99.90;;;;;;4902803;29;20051;-90
2022/10/27 06:51:31;;;;;;;18.00;12.93;;;13.80;99.90;;;;;;4914644;29;20036;-90
2022/10/27 06:53:57;;;;;;;16.90;13.27;;;13.80;99.90;;;;;;4897869;29;20048;-90
2022/10/27 06:56:22;;;;;;;18.60;13.18;;;13.80;99.90;;;;;;4889375;29;20078;-90
2022/10/27 06:58:49;;;;;;;18.23;12.98;;;13.80;99.90;;;;;;4883156;29;20040;-90
2022/10/27 07:01:15;;;;;;;18.70;13.98;;;13.80;99.90;;;;;;4865783;29;20044;-90
2022/10/27 07:03:41;;;;;;;15.05;12.80;;;13.90;99.90;;;;;;4880384;29;20063;-90
2022/10/27 07:06:06;;;;;;;16.83;13.20;;;13.90;99.90;;;;;;4879594;29;20048;-90
2022/10/27 07:08:32;;;;;;;19.48;13.68;;;13.80;99.90;;;;;;4895218;29;20108;-89
2022/10/27 07:10:58;;;;;;;16.75;12.35;;;13.90;99.90;;;;;;4889439;29;20505;-91
2022/10/27 07:13:24;;;;;;;18.73;12.77;;;13.90;99.90;;;;;;4914531;29;20413;-90
2022/10/27 07:15:50;;;;;;;18.17;12.43;;;13.90;99.90;;;;;;4897780;29;20044;-89
2022/10/27 07:18:15;;;;;;;20.17;13.70;;;13.90;99.90;;;;;;4898086;29;20107;-90
2022/10/27 07:20:44;;;;;;;17.27;13.82;;;14.00;99.90;;;;;;4897575;29;20481;-91
2022/10/27 07:23:11;;;;;;;18.85;13.45;;;13.90;99.90;;;;;;4897783;29;20046;-90
2022/10/27 07:25:37;;;;;;;18.85;13.45;;;13.90;99.90;;;;;;4897175;29;20044;-90
2022/10/27 07:28:05;;;;;;;19.88;13.48;;;14.00;99.90;;;;;;4897637;29;20436;-90
2022/10/27 07:30:43;;;;;;;19.40;12.93;;;14.00;99.90;;;;;;4898039;29;20448;-90
2022/10/27 07:33:10;;;;;;;18.08;12.45;;;14.00;99.90;;;;;;4897482;29;20043;-90
2022/10/27 07:35:36;;;;;;;16.40;12.18;;;14.00;99.90;;;;;;4896121;29;20048;-90
2022/10/27 07:38:03;;;;;;;16.40;13.23;;;14.10;99.90;;;;;;4901160;29;20044;-90
2022/10/27 07:40:29;;;;;;;17.08;12.75;;;14.10;99.90;;;;;;4901306;29;20055;-90
2022/10/27 07:42:56;;;;;;;16.08;12.10;;;14.10;99.90;;;;;;4917602;29;20457;-90
2022/10/27 07:45:23;;;;;;;16.98;12.43;;;14.20;99.90;;;;;;4900078;29;20135;-90
2022/10/27 07:47:52;;;;;;;16.38;12.45;;;14.20;99.90;;;;;;4900675;29;20486;-90
2022/10/27 07:50:19;;;;;;;17.70;12.32;;;14.20;99.90;;;;;;4917505;29;20055;-90
2022/10/27 07:52:48;;;;;;;16.15;12.52;;;14.20;99.90;;;;;;4899955;29;20405;-91
2022/10/27 07:55:15;;;;;;;17.15;11.55;;;14.20;99.90;;;;;;4885297;29;20397;-90
2022/10/27 07:57:42;;;;;;;18.27;12.05;;;14.30;99.90;;;;;;4900475;29;20137;-90
2022/10/27 08:00:13;;;;;;;15.02;11.23;;;14.40;99.90;;;;;;4884269;29;20036;-90
2022/10/27 08:02:39;;;;;;;14.57;12.18;;;14.40;99.90;;;;;;4884439;29;20092;-91
2022/10/27 08:05:05;;;;;;;42.10;14.07;;;14.40;99.90;;;;;;4899423;29;20127;-90
2022/10/27 08:07:31;;;;;;;15.02;11.30;;;14.40;99.90;;;;;;4884675;29;20048;-90
2022/10/27 08:09:56;;;;;;;14.38;11.20;;;14.50;99.90;;;;;;4899785;29;20040;-90
2022/10/27 08:12:22;;;;;;;16.08;11.13;;;14.50;99.90;;;;;;4900496;29;20405;-90
2022/10/27 08:14:48;;;;;;;16.77;11.57;;;14.50;99.90;;;;;;4884775;29;20051;-90
2022/10/27 08:17:14;;;;;;;18.15;11.50;;;14.60;99.90;;;;;;4900720;29;20100;-90
2022/10/27 08:19:40;;;;;;;14.85;11.30;;;14.60;99.90;;;;;;4899801;29;20110;-89
2022/10/27 08:22:05;;;;;;;17.25;11.55;;;14.60;99.90;;;;;;4898633;29;20176;-90
2022/10/27 08:24:31;;;;;;;13.80;11.60;;;14.70;99.90;;;;;;4899688;29;20044;-90
2022/10/27 08:26:56;;;;;;;14.32;11.73;;;14.80;99.90;;;;;;4900394;29;20054;-90
2022/10/27 08:29:22;;;;;;;15.85;10.82;;;14.80;99.90;;;;;;4900308;29;20048;-89
2022/10/27 08:31:48;;;;;;;17.15;11.30;;;14.80;99.90;;;;;;4884444;29;20062;-90
2022/10/27 08:34:14;;;;;;;16.45;11.13;;;14.80;99.90;;;;;;4900769;29;20483;-90
2022/10/27 08:36:39;;;;;;;15.18;11.38;;;14.90;99.90;;;;;;4902515;29;20405;-91
2022/10/27 08:39:05;;;;;;;14.85;11.55;;;14.90;99.90;;;;;;4920621;29;20077;-90
2022/10/27 08:41:49;;;;;;;17.00;11.27;;;14.90;99.90;;;;;;4906817;29;20103;-89
2022/10/27 08:44:26;;;;;;;14.98;10.95;;;14.90;99.90;;;;;;4905334;29;20099;-89
2022/10/27 08:46:56;;;;;;;14.98;11.07;;;14.90;99.90;;;;;;4907991;29;20099;-90
2022/10/27 08:49:27;;;;;;;15.27;10.93;;;15.00;99.90;;;;;;4908402;29;20040;-90
2022/10/27 08:51:58;;;;;;;15.63;11.25;;;15.00;99.90;;;;;;4925413;29;20063;-90
2022/10/27 08:54:24;;;;;;;;;;;15.00;99.90;;;;;;4909695;29;20145;-90
2022/10/27 08:56:54;;;;;;;16.70;11.20;;;15.00;99.90;;;;;;4893403;29;19974;-90
2022/10/27 08:59:23;;;;;;;17.58;11.52;;;15.10;99.90;;;;;;4905863;29;20044;-89
2022/10/27 09:01:59;;;;;;;15.13;11.63;;;15.10;99.90;;;;;;4907493;29;20595;-87
2022/10/27 09:04:45;;;;;;;16.42;11.02;;;15.20;99.90;;;;;;4897975;29;20135;-90
2022/10/27 09:07:22;;;;;;;16.17;11.13;;;15.30;99.90;;;;;;4862654;29;20135;-89
2022/10/27 09:10:01;;;;;;;15.10;11.05;;;15.30;99.90;;;;;;4893337;29;20041;-89
2022/10/27 09:12:47;;;;;;;16.30;11.20;;;15.40;99.90;;;;;;4885355;29;20032;-89
2022/10/27 09:15:22;;;;;;;15.48;11.30;;;15.40;99.90;;;;;;4898946;29;20071;-90
2022/10/27 09:18:15;;;;;;;14.43;10.30;;;15.50;99.90;;;;;;4923689;29;20043;-89
2022/10/27 09:20:51;;;;;;;14.50;10.75;;;15.60;99.90;;;;;;4904073;29;20092;-90
2022/10/27 09:23:20;;;;;;;14.88;10.73;;;15.70;99.90;;;;;;4904046;29;20044;-90
2022/10/27 09:25:51;;;;;;;15.00;10.48;;;15.80;99.90;;;;;;4904708;29;20116;-90
2022/10/27 09:28:26;;;;;;;;;;;15.80;99.90;;;;;;4909973;29;20036;-90
2022/10/27 09:30:52;;;;;;;13.32;9.20;;;15.80;99.90;;;;;;4926830;29;20001;-90
2022/10/27 09:33:21;;;;;;;13.77;9.80;;;15.90;99.90;;;;;;4928255;29;20160;-90
2022/10/27 09:35:50;;;;;;;14.05;8.93;;;16.00;99.90;;;;;;4911693;29;20036;-90
2022/10/27 09:38:22;;;;;;;13.75;9.30;;;16.10;99.90;;;;;;4894640;29;20053;-90
2022/10/27 09:40:50;;;;;;;13.80;9.13;;;16.20;99.90;;;;;;4894893;29;20048;-90
2022/10/27 09:43:17;;;;;;;12.30;8.20;;;16.30;99.90;;;;;;4917873;29;20044;-90
2022/10/27 09:45:43;;;;;;;12.27;8.57;;;16.30;99.90;;;;;;4899979;29;20450;-89
2022/10/27 09:48:18;;;;;;;13.23;8.23;;;16.40;99.90;;;;;;4885263;29;20075;-90
2022/10/27 09:50:49;;;;;;;13.43;7.68;;;16.40;99.90;;;;;;4899528;29;20050;-91
2022/10/27 09:53:44;;;;;;;12.70;7.72;;;16.50;99.90;;;;;;4915918;29;20127;-90
2022/10/27 09:56:17;;;;;;;11.93;7.15;;;16.60;99.90;;;;;;4881908;29;20036;-90
2022/10/27 09:58:48;;;;;;;11.10;6.22;;;16.70;99.90;;;;;;4898940;29;20521;-90
2022/10/27 10:01:13;;;;;;;;;;;16.80;99.90;;;;;;4899105;29;20086;-90
2022/10/27 10:03:50;;;;;;;12.25;6.95;;;16.80;99.90;;;;;;4899152;29;19923;-91
2022/10/27 10:06:26;;;;;;;12.40;6.55;;;16.90;99.90;;;;;;4898546;29;20126;-90
2022/10/27 10:08:51;;;;;;;9.73;6.15;;;17.10;99.90;;;;;;4915364;29;20125;-90
2022/10/27 10:11:20;;;;;;;10.10;5.60;;;17.20;99.90;;;;;;4901394;29;20051;-91
2022/10/27 10:14:00;;;;;;;11.35;5.63;;;17.30;99.90;;;;;;4918564;29;20118;-91
2022/10/27 10:16:27;;;;;;;9.45;5.35;;;17.40;99.90;;;;;;4918892;29;20036;-91
2022/10/27 10:19:06;;;;;;;10.40;5.20;;;17.40;99.90;;;;;;4899177;29;20393;-90
2022/10/27 10:21:59;;;;;;;9.07;4.90;;;17.50;99.90;;;;;;4898719;29;20119;-90
2022/10/27 10:24:32;;;;;;;10.38;5.43;;;17.60;99.90;;;;;;4915816;29;20494;-90
2022/10/27 10:27:02;;;;;;;9.27;4.60;;;17.60;99.90;;;;;;4899207;29;20105;-90
2022/10/27 10:29:33;;;;;;;9.73;4.68;;;17.80;99.90;;;;;;4893104;29;20089;-90
2022/10/27 10:32:15;;;;;;;9.27;5.20;;;17.90;99.90;;;;;;4886479;29;20047;-91
2022/10/27 10:34:44;;;;;;;11.55;5.40;;;18.00;99.90;;;;;;4900551;29;20084;-90
2022/10/27 10:37:30;;;;;;;9.40;4.28;;;18.10;99.90;;;;;;4915857;29;20549;-90
2022/10/27 10:40:12;;;;;;;8.80;4.43;;;18.10;99.90;;;;;;4898441;29;20050;-91
2022/10/27 10:42:38;;;;;;;9.07;3.80;;;18.10;99.90;;;;;;4897680;29;20122;-91
2022/10/27 10:45:15;;;;;;;8.05;3.08;;;18.20;99.90;;;;;;4897267;29;20394;-91
2022/10/27 10:47:46;;;;;;;6.57;2.60;;;18.20;99.90;;;;;;4898857;29;20040;-91
2022/10/27 10:50:13;;;;;;;6.78;2.38;;;18.20;99.90;;;;;;4882290;29;20127;-91
2022/10/27 10:52:46;;;;;;;5.55;2.22;;;18.30;99.90;;;;;;4882816;29;20059;-91
2022/10/27 10:55:24;;;;;;;7.47;2.58;;;18.30;99.90;;;;;;4882510;29;20052;-91
2022/10/27 10:57:53;;;;;;;8.32;2.50;;;18.30;99.90;;;;;;4897256;29;20040;-91
2022/10/27 11:00:20;;;;;;;7.70;2.40;;;18.40;99.90;;;;;;4879097;29;20071;-91
2022/10/27 11:03:09;;;;;;;8.43;2.15;;;18.40;99.90;;;;;;4878965;29;20088;-91
2022/10/27 11:05:36;;;;;;;5.40;2.05;;;18.50;99.90;;;;;;4895004;29;20048;-91
2022/10/27 11:08:04;;;;;;;8.98;2.30;;;18.50;99.90;;;;;;4879069;29;20569;-92
2022/10/27 11:10:37;;;;;;;7.85;2.10;;;18.50;99.90;;;;;;4863558;29;20048;-91
2022/10/27 11:13:11;;;;;;;6.38;2.20;;;18.50;99.90;;;;;;4885819;29;20426;-91
2022/10/27 11:15:56;;;;;;;7.85;1.90;;;18.50;99.90;;;;;;4901259;29;20052;-91
2022/10/27 11:19:17;;;;;;;5.63;2.00;;;18.60;99.90;;;;;;4901204;29;20043;-91
2022/10/27 11:22:01;;;;;;;7.38;2.50;;;18.50;99.90;;;;;;4856737;29;20048;-92
2022/10/27 11:24:40;;;;;;;8.10;2.22;;;18.50;99.90;;;;;;4842277;29;20111;-91
2022/10/27 11:27:18;;;;;;;7.75;2.28;;;18.50;99.90;;;;;;4825560;29;20065;-91
2022/10/27 11:30:02;;;;;;;8.88;3.03;;;18.50;99.90;;;;;;4826118;29;20473;-92
2022/10/27 11:32:49;;;;;;;5.90;2.28;;;18.50;99.90;;;;;;4810044;29;20057;-92
2022/10/27 11:35:22;;;;;;;6.80;2.10;;;18.60;99.90;;;;;;4840882;29;20060;-92
2022/10/27 11:37:52;;;;;;;8.18;1.90;;;18.50;99.90;;;;;;4825457;29;20159;-92
2022/10/27 11:40:42;;;;;;;5.93;1.90;;;18.50;99.90;;;;;;4824972;29;20132;-92
2022/10/27 11:43:24;;;;;;;5.93;2.10;;;18.50;99.90;;;;;;4813017;29;20152;-91
2022/10/27 11:45:57;;;;;;;5.93;2.40;;;18.60;99.90;;;;;;4825632;29;20065;-92
2022/10/27 11:48:28;;;;;;;7.28;2.40;;;18.60;99.90;;;;;;4824818;29;20482;-92
2022/10/27 11:51:04;;;;;;;6.28;2.50;;;18.60;99.90;;;;;;4809070;29;20053;-93
2022/10/27 11:53:30;;;;;;;7.47;2.53;;;18.70;99.90;;;;;;4825575;29;20049;-92
2022/10/27 11:56:37;;;;;;;7.50;2.60;;;18.60;99.90;;;;;;4870890;29;20532;-93
2022/10/27 11:59:06;;;;;;;8.55;2.60;;;18.60;99.90;;;;;;4884743;29;20511;-91
2022/10/27 12:02:10;;;;;;;7.18;2.38;;;18.60;99.90;;;;;;4900169;29;20044;-92
2022/10/27 12:04:54;;;;;;;7.65;2.40;;;18.60;99.90;;;;;;4916623;29;20055;-91
2022/10/27 12:07:34;;;;;;;8.80;2.65;;;18.50;99.90;;;;;;4900047;29;20051;-92
2022/10/27 12:10:23;;;;;;;10.40;3.22;;;18.50;99.90;;;;;;4910072;29;20382;-92
2022/10/27 12:13:21;;;;;;;7.28;2.35;;;18.50;99.90;;;;;;4900295;29;20107;-92
2022/10/27 12:16:01;;;;;;;8.38;2.70;;;18.50;99.90;;;;;;4916172;29;20052;-93
2022/10/27 12:18:36;;;;;;;7.28;2.45;;;18.50;99.90;;;;;;4900472;29;20042;-92
2022/10/27 12:21:12;;;;;;;8.52;2.67;;;18.50;99.90;;;;;;4881848;29;20043;-92
2022/10/27 12:23:54;;;;;;;6.25;2.50;;;18.40;99.90;;;;;;4898392;29;20072;-92
2022/10/27 12:26:46;;;;;;;8.23;2.80;;;18.40;99.90;;;;;;4883498;29;20050;-92
2022/10/27 12:29:14;;;;;;;6.22;2.47;;;18.40;99.90;;;;;;4900348;29;20040;-92
2022/10/27 12:32:04;;;;;;;9.93;2.85;;;18.40;99.90;;;;;;4900434;29;20060;-93
2022/10/27 12:34:36;;;;;;;8.27;2.58;;;18.40;99.90;;;;;;4899694;29;20135;-92
2022/10/27 12:37:12;;;;;;;8.20;2.65;;;18.40;99.90;;;;;;4900249;29;20079;-93
2022/10/27 12:39:59;;;;;;;7.50;2.33;;;18.50;99.90;;;;;;4898844;29;20052;-91
2022/10/27 12:42:40;;;;;;;8.15;2.50;;;18.50;99.90;;;;;;4899888;29;20055;-92
2022/10/27 12:45:24;;;;;;;6.18;2.47;;;18.50;99.90;;;;;;4884192;29;20396;-92
2022/10/27 12:48:13;;;;;;;8.32;2.58;;;18.60;99.90;;;;;;4883848;29;20048;-92
2022/10/27 12:51:05;;;;;;;6.80;2.38;;;18.60;99.90;;;;;;4898885;29;20040;-92